sensor_id;sensor_type;location;lat;lon;timestamp;pressure;altitude;pressure_sealevel;temperature;humidity
44027;BME280;29696;55.698;37.460;2023-04-25T00:01:48;99288.03;;;12.76;42.87
44027;BME280;29696;55.698;37.460;2023-04-25T00:04:14;99290.34;;;12.79;42.89
44027;BME280;29696;55.698;37.460;2023-04-25T00:06:41;99289.72;;;12.85;42.72
44027;BME280;29696;55.698;37.460;2023-04-25T00:09:08;99294.72;;;12.88;42.90
44027;BME280;29696;55.698;37.460;2023-04-25T00:11:36;99300.53;;;12.92;42.88
44027;BME280;29696;55.698;37.460;2023-04-25T00:14:04;99296.75;;;12.94;42.94
44027;BME280;29696;55.698;37.460;2023-04-25T00:16:30;99301.59;;;12.99;42.99
44027;BME280;29696;55.698;37.460;2023-04-25T00:19:03;99301.91;;;13.04;42.90
44027;BME280;29696;55.698;37.460;2023-04-25T00:21:30;99303.13;;;13.10;42.71
44027;BME280;29696;55.698;37.460;2023-04-25T00:23:57;99299.31;;;13.12;42.61
44027;BME280;29696;55.698;37.460;2023-04-25T00:26:24;99307.66;;;13.17;42.66
44027;BME280;29696;55.698;37.460;2023-04-25T00:28:51;99305.44;;;13.13;42.84
44027;BME280;29696;55.698;37.460;2023-04-25T00:31:17;99308.31;;;13.19;42.78
44027;BME280;29696;55.698;37.460;2023-04-25T00:33:43;99309.16;;;13.20;42.74
44027;BME280;29696;55.698;37.460;2023-04-25T00:36:10;99307.16;;;13.22;42.89
44027;BME280;29696;55.698;37.460;2023-04-25T00:38:37;99309.19;;;13.28;42.66
44027;BME280;29696;55.698;37.460;2023-04-25T00:41:06;99307.41;;;13.29;43.01
44027;BME280;29696;55.698;37.460;2023-04-25T00:43:34;99309.09;;;13.38;42.49
44027;BME280;29696;55.698;37.460;2023-04-25T00:46:02;99295.84;;;13.46;42.30
44027;BME280;29696;55.698;37.460;2023-04-25T00:48:29;99303.19;;;13.60;42.12
44027;BME280;29696;55.698;37.460;2023-04-25T00:50:58;99311.69;;;13.72;41.99
44027;BME280;29696;55.698;37.460;2023-04-25T00:53:26;99302.88;;;13.72;41.84
44027;BME280;29696;55.698;37.460;2023-04-25T00:55:54;99304.72;;;13.71;42.01
44027;BME280;29696;55.698;37.460;2023-04-25T00:58:22;99304.88;;;13.69;42.57
44027;BME280;29696;55.698;37.460;2023-04-25T01:00:49;99311.81;;;13.62;42.88
44027;BME280;29696;55.698;37.460;2023-04-25T01:03:18;99303.19;;;13.52;43.02
44027;BME280;29696;55.698;37.460;2023-04-25T01:05:46;99305.31;;;13.48;42.91
44027;BME280;29696;55.698;37.460;2023-04-25T01:08:14;99306.44;;;13.46;43.00
44027;BME280;29696;55.698;37.460;2023-04-25T01:10:40;99295.84;;;13.46;42.92
44027;BME280;29696;55.698;37.460;2023-04-25T01:13:08;99301.34;;;13.53;42.95
44027;BME280;29696;55.698;37.460;2023-04-25T01:15:34;99302.00;;;13.55;43.25
44027;BME280;29696;55.698;37.460;2023-04-25T01:18:03;99307.47;;;13.53;43.19
44027;BME280;29696;55.698;37.460;2023-04-25T01:20:31;99297.53;;;13.55;43.09
44027;BME280;29696;55.698;37.460;2023-04-25T01:22:58;99296.69;;;13.55;43.10
44027;BME280;29696;55.698;37.460;2023-04-25T01:25:25;99290.72;;;13.53;42.99
44027;BME280;29696;55.698;37.460;2023-04-25T01:27:52;99288.22;;;13.51;43.15
44027;BME280;29696;55.698;37.460;2023-04-25T01:30:19;99289.91;;;13.52;43.28
44027;BME280;29696;55.698;37.460;2023-04-25T01:32:47;99295.41;;;13.59;43.44
44027;BME280;29696;55.698;37.460;2023-04-25T01:35:14;99291.06;;;13.58;43.40
44027;BME280;29696;55.698;37.460;2023-04-25T01:37:42;99292.75;;;13.59;43.55
44027;BME280;29696;55.698;37.460;2023-04-25T01:40:11;99293.38;;;13.61;43.56
44027;BME280;29696;55.698;37.460;2023-04-25T01:42:41;99294.91;;;13.63;43.57
44027;BME280;29696;55.698;37.460;2023-04-25T01:45:09;99282.78;;;13.61;43.70
44027;BME280;29696;55.698;37.460;2023-04-25T01:47:38;99287.75;;;13.56;44.02
44027;BME280;29696;55.698;37.460;2023-04-25T01:50:07;99294.22;;;13.53;43.98
44027;BME280;29696;55.698;37.460;2023-04-25T01:52:35;99284.91;;;13.49;44.07
44027;BME280;29696;55.698;37.460;2023-04-25T01:55:02;99284.25;;;13.47;43.38
44027;BME280;29696;55.698;37.460;2023-04-25T01:57:31;99288.44;;;13.66;43.29
44027;BME280;29696;55.698;37.460;2023-04-25T02:00:02;99286.97;;;13.72;43.87
44027;BME280;29696;55.698;37.460;2023-04-25T02:02:39;99281.81;;;13.70;43.97
44027;BME280;29696;55.698;37.460;2023-04-25T02:05:12;99276.50;;;13.70;43.69
44027;BME280;29696;55.698;37.460;2023-04-25T02:07:40;99277.34;;;13.70;44.10
44027;BME280;29696;55.698;37.460;2023-04-25T02:10:07;99280.97;;;13.69;44.14
44027;BME280;29696;55.698;37.460;2023-04-25T02:12:38;99276.81;;;13.67;43.94
44027;BME280;29696;55.698;37.460;2023-04-25T02:15:17;99274.16;;;13.67;44.46
44027;BME280;29696;55.698;37.460;2023-04-25T02:18:17;99274.84;;;13.69;44.40
44027;BME280;29696;55.698;37.460;2023-04-25T02:20:44;99268.38;;;13.72;44.04
44027;BME280;29696;55.698;37.460;2023-04-25T02:23:11;99269.03;;;13.74;43.88
44027;BME280;29696;55.698;37.460;2023-04-25T02:25:38;99274.50;;;13.72;44.55
44027;BME280;29696;55.698;37.460;2023-04-25T02:28:04;99265.56;;;13.73;44.54
44027;BME280;29696;55.698;37.460;2023-04-25T02:30:31;99271.38;;;13.77;44.26
44027;BME280;29696;55.698;37.460;2023-04-25T02:32:57;99271.53;;;13.75;44.42
44027;BME280;29696;55.698;37.460;2023-04-25T02:35:24;99270.56;;;13.76;44.88
44027;BME280;29696;55.698;37.460;2023-04-25T02:37:53;99278.84;;;13.81;43.89
44027;BME280;29696;55.698;37.460;2023-04-25T02:40:20;99281.50;;;13.89;43.44
44027;BME280;29696;55.698;37.460;2023-04-25T02:42:46;99276.88;;;14.00;43.16
44027;BME280;29696;55.698;37.460;2023-04-25T02:45:14;99279.03;;;14.04;42.90
44027;BME280;29696;55.698;37.460;2023-04-25T02:47:40;99272.06;;;14.03;42.71
44027;BME280;29696;55.698;37.460;2023-04-25T02:50:07;99282.38;;;14.06;43.51
44027;BME280;29696;55.698;37.460;2023-04-25T02:52:34;99280.34;;;14.08;43.45
44027;BME280;29696;55.698;37.460;2023-04-25T02:55:16;99278.03;;;14.13;43.35
44027;BME280;29696;55.698;37.460;2023-04-25T02:57:43;99273.72;;;14.21;42.99
44027;BME280;29696;55.698;37.460;2023-04-25T03:00:15;99272.22;;;14.26;42.53
44027;BME280;29696;55.698;37.460;2023-04-25T03:02:41;99273.06;;;14.43;42.15
44027;BME280;29696;55.698;37.460;2023-04-25T03:05:08;99265.41;;;14.56;42.50
44027;BME280;29696;55.698;37.460;2023-04-25T03:07:35;99254.28;;;14.69;43.88
44027;BME280;29696;55.698;37.460;2023-04-25T03:10:02;99254.25;;;14.77;42.56
44027;BME280;29696;55.698;37.460;2023-04-25T03:12:33;99251.75;;;14.76;43.09
44027;BME280;29696;55.698;37.460;2023-04-25T03:14:59;99265.72;;;14.78;42.11
44027;BME280;29696;55.698;37.460;2023-04-25T03:17:26;99264.88;;;14.77;41.42
44027;BME280;29696;55.698;37.460;2023-04-25T03:19:52;99267.38;;;14.87;41.74
44027;BME280;29696;55.698;37.460;2023-04-25T03:22:19;99267.16;;;15.05;41.50
44027;BME280;29696;55.698;37.460;2023-04-25T03:24:46;99273.19;;;15.30;41.04
44027;BME280;29696;55.698;37.460;2023-04-25T03:27:13;99272.75;;;15.49;40.46
44027;BME280;29696;55.698;37.460;2023-04-25T03:29:40;99278.06;;;15.89;40.17
44027;BME280;29696;55.698;37.460;2023-04-25T03:32:07;99284.03;;;16.37;39.08
44027;BME280;29696;55.698;37.460;2023-04-25T03:34:33;99277.44;;;16.62;38.32
44027;BME280;29696;55.698;37.460;2023-04-25T03:37:00;99276.97;;;16.82;38.01
44027;BME280;29696;55.698;37.460;2023-04-25T03:39:26;99274.47;;;16.80;37.21
44027;BME280;29696;55.698;37.460;2023-04-25T03:41:53;99273.66;;;16.95;37.54
44027;BME280;29696;55.698;37.460;2023-04-25T03:44:20;99262.09;;;17.39;36.60
44027;BME280;29696;55.698;37.460;2023-04-25T03:46:47;99268.44;;;18.32;35.25
44027;BME280;29696;55.698;37.460;2023-04-25T03:49:14;99268.47;;;19.29;33.95
44027;BME280;29696;55.698;37.460;2023-04-25T03:51:55;99267.41;;;18.82;34.27
44027;BME280;29696;55.698;37.460;2023-04-25T03:54:22;99277.22;;;19.51;33.14
44027;BME280;29696;55.698;37.460;2023-04-25T03:57:04;99266.47;;;20.66;31.28
44027;BME280;29696;55.698;37.460;2023-04-25T03:59:33;99268.09;;;21.58;30.04
44027;BME280;29696;55.698;37.460;2023-04-25T04:02:00;99264.63;;;22.46;29.10
44027;BME280;29696;55.698;37.460;2023-04-25T04:04:27;99271.50;;;23.29;27.88
44027;BME280;29696;55.698;37.460;2023-04-25T04:06:54;99275.41;;;23.82;26.71
44027;BME280;29696;55.698;37.460;2023-04-25T04:09:29;99269.88;;;24.19;26.29
44027;BME280;29696;55.698;37.460;2023-04-25T04:11:58;99262.44;;;24.44;26.07
44027;BME280;29696;55.698;37.460;2023-04-25T04:14:24;99270.97;;;24.29;26.17
44027;BME280;29696;55.698;37.460;2023-04-25T04:16:51;99263.97;;;24.75;25.43
44027;BME280;29696;55.698;37.460;2023-04-25T04:19:18;99260.38;;;25.34;24.90
44027;BME280;29696;55.698;37.460;2023-04-25T04:21:52;99264.72;;;26.04;23.92
44027;BME280;29696;55.698;37.460;2023-04-25T04:24:18;99269.94;;;26.95;23.39
44027;BME280;29696;55.698;37.460;2023-04-25T04:26:51;99268.03;;;27.78;22.40
44027;BME280;29696;55.698;37.460;2023-04-25T04:29:40;99261.56;;;27.79;21.95
44027;BME280;29696;55.698;37.460;2023-04-25T04:32:30;99263.59;;;28.26;21.74
44027;BME280;29696;55.698;37.460;2023-04-25T04:34:59;99265.03;;;28.71;21.17
44027;BME280;29696;55.698;37.460;2023-04-25T04:37:26;99258.97;;;29.01;20.70
44027;BME280;29696;55.698;37.460;2023-04-25T04:39:52;99261.28;;;29.20;20.33
44027;BME280;29696;55.698;37.460;2023-04-25T04:42:31;99264.22;;;29.71;19.94
44027;BME280;29696;55.698;37.460;2023-04-25T04:45:16;99271.66;;;30.37;19.00
44027;BME280;29696;55.698;37.460;2023-04-25T04:47:46;99269.97;;;30.92;18.76
44027;BME280;29696;55.698;37.460;2023-04-25T04:50:33;99270.75;;;31.73;17.93
44027;BME280;29696;55.698;37.460;2023-04-25T04:53:18;99272.19;;;31.60;17.84
44027;BME280;29696;55.698;37.460;2023-04-25T04:56:03;99266.88;;;31.19;18.55
44027;BME280;29696;55.698;37.460;2023-04-25T04:58:48;99266.28;;;31.92;18.14
44027;BME280;29696;55.698;37.460;2023-04-25T05:01:54;99267.28;;;31.57;18.14
44027;BME280;29696;55.698;37.460;2023-04-25T05:04:27;99263.50;;;31.97;17.55
44027;BME280;29696;55.698;37.460;2023-04-25T05:07:19;99259.56;;;32.48;17.22
44027;BME280;29696;55.698;37.460;2023-04-25T05:10:12;99259.06;;;32.99;16.84
44027;BME280;29696;55.698;37.460;2023-04-25T05:13:05;99251.88;;;33.89;16.06
44027;BME280;29696;55.698;37.460;2023-04-25T05:16:03;99262.31;;;33.68;16.20
44027;BME280;29696;55.698;37.460;2023-04-25T05:18:36;99264.50;;;32.75;16.96
44027;BME280;29696;55.698;37.460;2023-04-25T05:21:07;99265.03;;;32.14;17.44
44027;BME280;29696;55.698;37.460;2023-04-25T05:24:00;99260.34;;;31.10;18.32
44027;BME280;29696;55.698;37.460;2023-04-25T05:26:55;99268.28;;;31.01;18.02
44027;BME280;29696;55.698;37.460;2023-04-25T05:29:48;99255.16;;;31.73;17.83
44027;BME280;29696;55.698;37.460;2023-04-25T05:32:30;99259.03;;;33.04;16.88
44027;BME280;29696;55.698;37.460;2023-04-25T05:34:56;99249.19;;;33.46;16.09
44027;BME280;29696;55.698;37.460;2023-04-25T05:37:30;99254.78;;;33.60;15.98
44027;BME280;29696;55.698;37.460;2023-04-25T05:40:06;99254.06;;;34.25;15.47
44027;BME280;29696;55.698;37.460;2023-04-25T05:42:50;99248.91;;;34.23;15.02
44027;BME280;29696;55.698;37.460;2023-04-25T05:45:42;99250.06;;;34.83;14.88
44027;BME280;29696;55.698;37.460;2023-04-25T05:48:27;99244.16;;;35.44;13.98
44027;BME280;29696;55.698;37.460;2023-04-25T05:51:00;99243.47;;;34.97;14.25
44027;BME280;29696;55.698;37.460;2023-04-25T05:53:59;99242.81;;;34.73;14.87
44027;BME280;29696;55.698;37.460;2023-04-25T05:56:26;99250.16;;;35.47;14.25
44027;BME280;29696;55.698;37.460;2023-04-25T05:58:53;99248.44;;;34.82;14.18
44027;BME280;29696;55.698;37.460;2023-04-25T06:01:22;99235.69;;;36.05;13.49
44027;BME280;29696;55.698;37.460;2023-04-25T06:03:49;99237.81;;;36.62;13.29
44027;BME280;29696;55.698;37.460;2023-04-25T06:06:17;99233.84;;;36.23;12.74
44027;BME280;29696;55.698;37.460;2023-04-25T06:08:43;99232.25;;;35.49;13.31
44027;BME280;29696;55.698;37.460;2023-04-25T06:11:11;99233.91;;;35.09;13.92
44027;BME280;29696;55.698;37.460;2023-04-25T06:13:38;99220.22;;;35.59;13.86
44027;BME280;29696;55.698;37.460;2023-04-25T06:16:05;99227.81;;;36.43;13.48
44027;BME280;29696;55.698;37.460;2023-04-25T06:18:31;99211.53;;;36.87;12.79
44027;BME280;29696;55.698;37.460;2023-04-25T06:20:58;99217.03;;;37.44;12.07
44027;BME280;29696;55.698;37.460;2023-04-25T06:23:25;99214.41;;;37.39;12.43
44027;BME280;29696;55.698;37.460;2023-04-25T06:25:57;99209.34;;;38.54;11.73
44027;BME280;29696;55.698;37.460;2023-04-25T06:28:25;99203.94;;;38.66;11.48
44027;BME280;29696;55.698;37.460;2023-04-25T06:30:51;99202.38;;;39.16;11.48
44027;BME280;29696;55.698;37.460;2023-04-25T06:33:19;99202.53;;;39.91;10.66
44027;BME280;29696;55.698;37.460;2023-04-25T06:35:48;99201.16;;;40.30;10.69
44027;BME280;29696;55.698;37.460;2023-04-25T06:38:17;99197.91;;;40.28;10.29
44027;BME280;29696;55.698;37.460;2023-04-25T06:40:48;99197.47;;;40.38;10.25
44027;BME280;29696;55.698;37.460;2023-04-25T06:43:14;99201.88;;;40.52;10.00
44027;BME280;29696;55.698;37.460;2023-04-25T06:45:59;99205.50;;;40.77;9.74
44027;BME280;29696;55.698;37.460;2023-04-25T06:48:29;99208.13;;;41.47;9.90
44027;BME280;29696;55.698;37.460;2023-04-25T06:50:56;99204.19;;;41.48;9.58
44027;BME280;29696;55.698;37.460;2023-04-25T06:53:23;99201.56;;;40.66;9.77
44027;BME280;29696;55.698;37.460;2023-04-25T06:55:55;99200.78;;;39.15;10.48
44027;BME280;29696;55.698;37.460;2023-04-25T06:58:23;99193.94;;;38.91;10.47
44027;BME280;29696;55.698;37.460;2023-04-25T07:01:19;99202.00;;;37.85;11.12
44027;BME280;29696;55.698;37.460;2023-04-25T07:03:45;99199.56;;;37.49;11.53
44027;BME280;29696;55.698;37.460;2023-04-25T07:06:17;99210.97;;;36.67;11.37
44027;BME280;29696;55.698;37.460;2023-04-25T07:08:43;99212.06;;;35.67;12.29
44027;BME280;29696;55.698;37.460;2023-04-25T07:11:10;99212.56;;;35.33;12.34
44027;BME280;29696;55.698;37.460;2023-04-25T07:13:37;99213.75;;;34.99;12.58
44027;BME280;29696;55.698;37.460;2023-04-25T07:16:03;99210.44;;;35.66;12.13
44027;BME280;29696;55.698;37.460;2023-04-25T07:18:33;99202.38;;;35.34;12.55
44027;BME280;29696;55.698;37.460;2023-04-25T07:21:00;99191.66;;;35.46;12.62
44027;BME280;29696;55.698;37.460;2023-04-25T07:23:27;99197.50;;;35.89;12.25
44027;BME280;29696;55.698;37.460;2023-04-25T07:25:55;99195.47;;;36.49;12.33
44027;BME280;29696;55.698;37.460;2023-04-25T07:28:24;99199.84;;;36.81;11.94
44027;BME280;29696;55.698;37.460;2023-04-25T07:30:51;99190.88;;;38.28;11.10
44027;BME280;29696;55.698;37.460;2023-04-25T07:33:17;99195.56;;;39.64;11.04
44027;BME280;29696;55.698;37.460;2023-04-25T07:35:46;99197.22;;;39.98;10.11
44027;BME280;29696;55.698;37.460;2023-04-25T07:38:13;99193.41;;;37.95;10.93
44027;BME280;29696;55.698;37.460;2023-04-25T07:40:40;99195.00;;;36.02;11.39
44027;BME280;29696;55.698;37.460;2023-04-25T07:43:08;99194.03;;;35.25;12.35
44027;BME280;29696;55.698;37.460;2023-04-25T07:45:48;99203.78;;;34.76;13.18
44027;BME280;29696;55.698;37.460;2023-04-25T07:48:17;99193.75;;;34.71;12.81
44027;BME280;29696;55.698;37.460;2023-04-25T07:50:47;99188.94;;;35.32;12.71
44027;BME280;29696;55.698;37.460;2023-04-25T07:53:14;99204.56;;;34.35;13.80
44027;BME280;29696;55.698;37.460;2023-04-25T07:55:50;99195.81;;;33.25;14.45
44027;BME280;29696;55.698;37.460;2023-04-25T07:58:18;99186.53;;;33.21;14.85
44027;BME280;29696;55.698;37.460;2023-04-25T08:00:49;99206.88;;;33.14;15.00
44027;BME280;29696;55.698;37.460;2023-04-25T08:03:36;99176.19;;;32.93;15.25
44027;BME280;29696;55.698;37.460;2023-04-25T08:06:05;99219.69;;;31.13;16.74
44027;BME280;29696;55.698;37.460;2023-04-25T08:08:37;99189.53;;;28.78;18.66
44027;BME280;29696;55.698;37.460;2023-04-25T08:11:04;99199.53;;;26.78;20.82
44027;BME280;29696;55.698;37.460;2023-04-25T08:13:31;99190.88;;;26.25;21.62
44027;BME280;29696;55.698;37.460;2023-04-25T08:15:58;99195.97;;;24.67;22.17
44027;BME280;29696;55.698;37.460;2023-04-25T08:18:24;99203.13;;;23.72;23.49
44027;BME280;29696;55.698;37.460;2023-04-25T08:20:51;99209.56;;;22.86;25.29
44027;BME280;29696;55.698;37.460;2023-04-25T08:23:17;99187.16;;;23.71;24.56
44027;BME280;29696;55.698;37.460;2023-04-25T08:25:52;99203.78;;;24.09;24.04
44027;BME280;29696;55.698;37.460;2023-04-25T08:28:22;99192.25;;;23.79;24.61
44027;BME280;29696;55.698;37.460;2023-04-25T08:30:49;99209.22;;;23.19;25.30
44027;BME280;29696;55.698;37.460;2023-04-25T08:33:17;99187.97;;;22.30;26.58
44027;BME280;29696;55.698;37.460;2023-04-25T08:36:06;99188.31;;;21.84;27.29
44027;BME280;29696;55.698;37.460;2023-04-25T08:38:33;99193.34;;;21.42;27.66
44027;BME280;29696;55.698;37.460;2023-04-25T08:41:01;99192.88;;;21.00;28.91
44027;BME280;29696;55.698;37.460;2023-04-25T08:43:29;99175.34;;;20.84;28.79
44027;BME280;29696;55.698;37.460;2023-04-25T08:46:00;99193.72;;;20.94;28.16
44027;BME280;29696;55.698;37.460;2023-04-25T08:48:36;99174.94;;;20.87;28.56
44027;BME280;29696;55.698;37.460;2023-04-25T08:51:07;99167.19;;;21.11;28.36
44027;BME280;29696;55.698;37.460;2023-04-25T08:53:34;99156.88;;;21.08;28.51
44027;BME280;29696;55.698;37.460;2023-04-25T08:56:05;99169.69;;;21.12;28.28
44027;BME280;29696;55.698;37.460;2023-04-25T08:58:35;99166.56;;;21.09;27.92
44027;BME280;29696;55.698;37.460;2023-04-25T09:01:03;99160.66;;;21.00;28.08
44027;BME280;29696;55.698;37.460;2023-04-25T09:03:35;99170.28;;;21.14;27.59
44027;BME280;29696;55.698;37.460;2023-04-25T09:06:02;99142.97;;;20.79;27.28
44027;BME280;29696;55.698;37.460;2023-04-25T09:08:29;99160.38;;;20.57;28.03
44027;BME280;29696;55.698;37.460;2023-04-25T09:10:56;99170.28;;;20.49;28.61
44027;BME280;29696;55.698;37.460;2023-04-25T09:13:29;99154.56;;;20.60;28.73
44027;BME280;29696;55.698;37.460;2023-04-25T09:16:31;99142.13;;;20.85;28.85
44027;BME280;29696;55.698;37.460;2023-04-25T09:19:32;99153.22;;;20.95;28.58
44027;BME280;29696;55.698;37.460;2023-04-25T09:22:02;99151.66;;;20.74;29.17
44027;BME280;29696;55.698;37.460;2023-04-25T09:24:37;99142.56;;;20.69;30.00
44027;BME280;29696;55.698;37.460;2023-04-25T09:27:08;99138.72;;;20.38;30.00
44027;BME280;29696;55.698;37.460;2023-04-25T09:29:37;99157.94;;;20.09;29.16
44027;BME280;29696;55.698;37.460;2023-04-25T09:35:01;99152.91;;;19.52;30.11
44027;BME280;29696;55.698;37.460;2023-04-25T09:37:30;99171.59;;;19.26;30.72
44027;BME280;29696;55.698;37.460;2023-04-25T09:40:32;99145.38;;;19.01;30.64
44027;BME280;29696;55.698;37.460;2023-04-25T09:43:19;99152.75;;;18.92;31.25
44027;BME280;29696;55.698;37.460;2023-04-25T09:45:47;99134.00;;;18.92;31.16
44027;BME280;29696;55.698;37.460;2023-04-25T09:48:39;99138.81;;;19.17;31.05
44027;BME280;29696;55.698;37.460;2023-04-25T09:51:11;99130.59;;;19.19;31.03
44027;BME280;29696;55.698;37.460;2023-04-25T09:53:40;99136.38;;;19.29;29.92
44027;BME280;29696;55.698;37.460;2023-04-25T09:56:16;99124.22;;;19.26;30.05
44027;BME280;29696;55.698;37.460;2023-04-25T09:58:43;99117.44;;;19.50;29.98
44027;BME280;29696;55.698;37.460;2023-04-25T10:01:10;99135.84;;;19.73;29.80
44027;BME280;29696;55.698;37.460;2023-04-25T10:03:50;99140.59;;;19.91;29.54
44027;BME280;29696;55.698;37.460;2023-04-25T10:06:49;99125.13;;;19.73;29.56
44027;BME280;29696;55.698;37.460;2023-04-25T10:09:20;99116.84;;;19.61;29.86
44027;BME280;29696;55.698;37.460;2023-04-25T10:11:47;99114.16;;;19.55;28.70
44027;BME280;29696;55.698;37.460;2023-04-25T10:14:18;99103.66;;;19.60;28.68
44027;BME280;29696;55.698;37.460;2023-04-25T10:16:45;99112.09;;;19.50;29.39
44027;BME280;29696;55.698;37.460;2023-04-25T10:19:13;99126.47;;;19.29;28.94
44027;BME280;29696;55.698;37.460;2023-04-25T10:21:51;99107.13;;;19.34;29.43
44027;BME280;29696;55.698;37.460;2023-04-25T10:24:19;99103.34;;;19.02;29.81
44027;BME280;29696;55.698;37.460;2023-04-25T10:26:47;99103.16;;;19.03;30.00
44027;BME280;29696;55.698;37.460;2023-04-25T10:29:22;99102.56;;;19.14;30.09
44027;BME280;29696;55.698;37.460;2023-04-25T10:31:50;99094.72;;;19.13;29.99
44027;BME280;29696;55.698;37.460;2023-04-25T10:34:17;99103.81;;;19.12;30.26
44027;BME280;29696;55.698;37.460;2023-04-25T10:36:50;99091.88;;;19.28;30.40
44027;BME280;29696;55.698;37.460;2023-04-25T10:39:27;99087.56;;;19.33;30.12
44027;BME280;29696;55.698;37.460;2023-04-25T10:41:56;99095.56;;;19.20;30.02
44027;BME280;29696;55.698;37.460;2023-04-25T10:44:29;99086.69;;;19.20;30.10
44027;BME280;29696;55.698;37.460;2023-04-25T10:46:56;99077.03;;;19.25;30.24
44027;BME280;29696;55.698;37.460;2023-04-25T10:49:31;99071.06;;;19.36;30.27
44027;BME280;29696;55.698;37.460;2023-04-25T10:52:19;99074.78;;;19.55;30.06
44027;BME280;29696;55.698;37.460;2023-04-25T10:54:56;99076.84;;;19.40;30.46
44027;BME280;29696;55.698;37.460;2023-04-25T10:57:36;99066.94;;;19.27;30.68
44027;BME280;29696;55.698;37.460;2023-04-25T11:00:12;99069.63;;;19.27;30.72
44027;BME280;29696;55.698;37.460;2023-04-25T11:02:55;99066.94;;;19.21;30.41
44027;BME280;29696;55.698;37.460;2023-04-25T11:05:33;99058.09;;;19.33;30.24
44027;BME280;29696;55.698;37.460;2023-04-25T11:08:00;99046.97;;;19.30;30.70
44027;BME280;29696;55.698;37.460;2023-04-25T11:10:46;99049.25;;;19.59;30.21
44027;BME280;29696;55.698;37.460;2023-04-25T11:13:13;99041.41;;;19.45;30.54
44027;BME280;29696;55.698;37.460;2023-04-25T11:15:40;99040.38;;;19.39;30.89
44027;BME280;29696;55.698;37.460;2023-04-25T11:18:06;99026.13;;;19.32;31.20
44027;BME280;29696;55.698;37.460;2023-04-25T11:20:33;99027.38;;;19.43;30.90
44027;BME280;29696;55.698;37.460;2023-04-25T11:22:59;99025.53;;;19.50;31.15
44027;BME280;29696;55.698;37.460;2023-04-25T11:25:26;99023.25;;;19.40;31.33
44027;BME280;29696;55.698;37.460;2023-04-25T11:27:54;99036.03;;;19.31;31.56
44027;BME280;29696;55.698;37.460;2023-04-25T11:30:21;99029.63;;;19.19;31.80
44027;BME280;29696;55.698;37.460;2023-04-25T11:32:48;99026.56;;;19.15;31.86
44027;BME280;29696;55.698;37.460;2023-04-25T11:35:14;99010.47;;;19.15;31.68
44027;BME280;29696;55.698;37.460;2023-04-25T11:37:42;99014.38;;;19.26;31.56
44027;BME280;29696;55.698;37.460;2023-04-25T11:40:10;99008.22;;;19.39;31.48
44027;BME280;29696;55.698;37.460;2023-04-25T11:42:38;99004.09;;;19.56;31.12
44027;BME280;29696;55.698;37.460;2023-04-25T11:45:06;99004.28;;;19.61;30.36
44027;BME280;29696;55.698;37.460;2023-04-25T11:47:33;99000.59;;;19.76;30.39
44027;BME280;29696;55.698;37.460;2023-04-25T11:50:01;99002.66;;;19.80;30.61
44027;BME280;29696;55.698;37.460;2023-04-25T11:52:43;99012.97;;;19.83;30.27
44027;BME280;29696;55.698;37.460;2023-04-25T11:55:16;98991.53;;;19.70;30.77
44027;BME280;29696;55.698;37.460;2023-04-25T11:57:44;98992.13;;;19.59;31.07
44027;BME280;29696;55.698;37.460;2023-04-25T12:00:16;99000.81;;;19.68;31.17
44027;BME280;29696;55.698;37.460;2023-04-25T12:02:51;98982.66;;;19.56;31.23
44027;BME280;29696;55.698;37.460;2023-04-25T12:05:18;98974.84;;;19.48;31.23
44027;BME280;29696;55.698;37.460;2023-04-25T12:07:46;98984.50;;;19.49;31.07
44027;BME280;29696;55.698;37.460;2023-04-25T12:10:14;98994.81;;;19.46;30.88
44027;BME280;29696;55.698;37.460;2023-04-25T12:12:42;98983.69;;;19.29;31.06
44027;BME280;29696;55.698;37.460;2023-04-25T12:15:32;98982.66;;;19.43;31.00
44027;BME280;29696;55.698;37.460;2023-04-25T12:18:01;98969.06;;;19.25;30.96
44027;BME280;29696;55.698;37.460;2023-04-25T12:20:28;98958.53;;;19.23;31.71
44027;BME280;29696;55.698;37.460;2023-04-25T12:22:57;98957.31;;;19.39;31.49
44027;BME280;29696;55.698;37.460;2023-04-25T12:25:40;98961.22;;;19.56;31.09
44027;BME280;29696;55.698;37.460;2023-04-25T12:28:18;98960.81;;;19.59;31.37
44027;BME280;29696;55.698;37.460;2023-04-25T12:31:05;98956.66;;;19.50;31.08
44027;BME280;29696;55.698;37.460;2023-04-25T12:33:34;98953.19;;;19.43;31.46
44027;BME280;29696;55.698;37.460;2023-04-25T12:36:03;98944.53;;;19.41;31.76
44027;BME280;29696;55.698;37.460;2023-04-25T12:38:39;98937.72;;;19.52;31.59
44027;BME280;29696;55.698;37.460;2023-04-25T12:41:07;98937.72;;;19.52;31.78
44027;BME280;29696;55.698;37.460;2023-04-25T12:43:34;98930.91;;;19.49;31.44
44027;BME280;29696;55.698;37.460;2023-04-25T12:46:00;98930.72;;;19.37;31.60
44027;BME280;29696;55.698;37.460;2023-04-25T12:48:27;98922.91;;;19.43;31.78
44027;BME280;29696;55.698;37.460;2023-04-25T12:50:54;98931.56;;;19.45;31.74
44027;BME280;29696;55.698;37.460;2023-04-25T12:53:22;98911.97;;;19.37;31.79
44027;BME280;29696;55.698;37.460;2023-04-25T12:55:50;98917.97;;;19.39;31.99
44027;BME280;29696;55.698;37.460;2023-04-25T12:58:18;98908.91;;;19.34;31.79
44027;BME280;29696;55.698;37.460;2023-04-25T13:00:45;98915.72;;;19.30;32.02
44027;BME280;29696;55.698;37.460;2023-04-25T13:03:12;98900.25;;;19.25;32.18
44027;BME280;29696;55.698;37.460;2023-04-25T13:05:39;98891.41;;;19.25;32.43
44027;BME280;29696;55.698;37.460;2023-04-25T13:08:06;98898.19;;;19.34;32.28
44027;BME280;29696;55.698;37.460;2023-04-25T13:10:32;98888.50;;;19.26;32.47
44027;BME280;29696;55.698;37.460;2023-04-25T13:13:00;98880.47;;;19.26;32.71
44027;BME280;29696;55.698;37.460;2023-04-25T13:15:28;98898.22;;;19.21;32.50